TKPN

Details ICAO TKPN (NEV)
Name Nevis/Amory Intl
Region Saint Kitts and Nevis
Timezone America/St_Kitts (UTC-4.0)
Plans Departing 8
Arriving 10
Stats Elevation 14 ft / 4 m (AMSL)
Location 17.205676° -62.589869°
Runways 1
Magnetic Variation 14.495° W
Sunrise 2017-12-18 10:35:22 UTC / 2017-12-18 06:35:22 Local
Sunset 2017-12-18 21:41:26 UTC / 2017-12-18 17:41:26 Local
Advertisement - Login to hide

Runways

ID Width Length Bearing (true) Bearing (mag) Surface Threshold Offset Overrun Length
10 98 ft / 30 m 3,997 ft / 1,218 m 89.43° 103.93° Asphalt 574 ft / 175 m 0 ft / 0 m
28 98 ft / 30 m 3,997 ft / 1,218 m 269.43° 283.93° Asphalt 0 ft / 0 m 0 ft / 0 m

Map

Weather


0- 5 10 15 20 25 30 35+ Temperature / ° C

Clouds and Precipitation
Forecast for 2017-12-18 18:00 UTC. Updated an hour ago

Ground ~20,000 ft ~40,000 ft Winds

METAR

TKPN 181800Z 09014KT 9999 VCSH SCT022 29/22 Q1015

TAF

TAF TKPN 181700Z 1818/1918 07012KT 9999 SCT020 PROB30 TEMPO 1900/1912 SHRA

Frequencies

Ground 121.60 MHz GND
Tower 120.50 MHz TWR
Warning: Do not use this data for real-world aviation or navigation. No guarantee of current accuracy is given.